createdAt,value
2022-11-10T00:02:08.096Z,16.87
2022-11-10T00:04:53.370Z,16.87
2022-11-10T00:07:38.891Z,16.97
2022-11-10T00:10:24.306Z,17.08
2022-11-10T00:13:09.276Z,16.95
2022-11-10T00:16:13.180Z,16.88
2022-11-10T00:18:58.503Z,16.90
2022-11-10T00:21:43.411Z,16.98
2022-11-10T00:24:29.283Z,16.98
2022-11-10T00:27:17.457Z,17.10
2022-11-10T00:30:03.076Z,16.99
2022-11-10T00:32:48.709Z,17.00
2022-11-10T00:35:33.969Z,16.96
2022-11-10T00:38:19.386Z,16.72
2022-11-10T00:41:04.942Z,16.77
2022-11-10T00:43:50.177Z,16.75
2022-11-10T00:46:35.486Z,16.60
2022-11-10T00:49:20.801Z,16.57
2022-11-10T00:52:06.184Z,16.66
2022-11-10T00:54:51.604Z,16.78
2022-11-10T00:57:36.916Z,16.77
2022-11-10T01:00:22.209Z,16.87
2022-11-10T01:03:07.883Z,16.81
2022-11-10T01:05:52.835Z,16.75
2022-11-10T01:08:39.213Z,16.84
2022-11-10T01:11:28.428Z,16.83
2022-11-10T01:14:13.560Z,16.83
2022-11-10T01:16:58.904Z,16.94
2022-11-10T01:19:44.217Z,17.02
2022-11-10T01:22:30.317Z,16.98
2022-11-10T01:25:15.830Z,17.04
2022-11-10T01:28:01.098Z,16.96
2022-11-10T01:30:46.153Z,16.84
2022-11-10T01:33:31.832Z,16.97
2022-11-10T01:36:17.234Z,17.04
2022-11-10T01:39:02.338Z,17.02
2022-11-10T01:41:47.689Z,17.03
2022-11-10T01:44:35.140Z,17.13
2022-11-10T01:47:20.262Z,17.17
2022-11-10T01:50:06.477Z,17.20
2022-11-10T01:52:54.470Z,17.23
2022-11-10T01:55:43.129Z,17.16
2022-11-10T01:58:32.588Z,17.17
2022-11-10T02:01:18.024Z,17.15
2022-11-10T02:04:07.389Z,17.16
2022-11-10T02:06:54.407Z,17.21
2022-11-10T02:09:39.580Z,17.13
2022-11-10T02:12:45.093Z,17.01
2022-11-10T02:15:30.022Z,17.10
2022-11-10T02:18:15.331Z,17.10
2022-11-10T02:21:04.117Z,17.09
2022-11-10T02:23:53.918Z,17.02
2022-11-10T02:27:05.445Z,17.04
2022-11-10T02:29:50.721Z,17.11
2022-11-10T02:32:36.360Z,17.09
2022-11-10T02:35:21.376Z,16.99
2022-11-10T02:38:06.777Z,17.13
2022-11-10T02:40:52.078Z,17.14
2022-11-10T02:43:38.358Z,17.06
2022-11-10T02:46:23.696Z,17.11
2022-11-10T02:49:09.132Z,17.13
2022-11-10T02:51:54.846Z,16.94
2022-11-10T02:54:40.144Z,17.09
2022-11-10T02:57:25.371Z,16.96
2022-11-10T03:00:11.237Z,16.70
2022-11-10T03:03:02.192Z,16.34
2022-11-10T03:05:47.436Z,16.23
2022-11-10T03:08:32.935Z,16.15
2022-11-10T03:11:18.178Z,16.09
2022-11-10T03:14:03.865Z,16.10
2022-11-10T03:16:48.910Z,16.37
2022-11-10T03:19:34.081Z,16.22
2022-11-10T03:22:19.358Z,16.17
2022-11-10T03:25:05.107Z,16.22
2022-11-10T03:27:50.423Z,16.05
2022-11-10T03:30:36.060Z,16.10
2022-11-10T03:33:21.693Z,16.08
2022-11-10T03:36:07.377Z,16.06
2022-11-10T03:38:52.313Z,16.10
2022-11-10T03:41:37.582Z,16.21
2022-11-10T03:44:23.005Z,15.95
2022-11-10T03:47:08.409Z,16.01
2022-11-10T03:49:53.595Z,16.24
2022-11-10T03:52:40.270Z,16.00
2022-11-10T03:55:25.304Z,16.06
2022-11-10T03:58:10.507Z,16.04
2022-11-10T04:00:56.312Z,16.05
2022-11-10T04:03:41.752Z,16.11
2022-11-10T04:06:45.585Z,16.15
2022-11-10T04:09:30.934Z,16.18
2022-11-10T04:12:34.991Z,16.20
2022-11-10T04:15:39.034Z,16.30
2022-11-10T04:18:29.377Z,16.32
2022-11-10T04:21:15.029Z,16.40
2022-11-10T04:24:00.357Z,16.38
2022-11-10T04:26:47.369Z,16.34
2022-11-10T04:29:33.002Z,16.43
2022-11-10T04:32:18.302Z,16.44
2022-11-10T04:35:03.712Z,16.42
2022-11-10T04:37:48.861Z,16.18
2022-11-10T04:40:34.041Z,16.20
2022-11-10T04:43:19.666Z,16.17
2022-11-10T04:46:06.555Z,16.19
2022-11-10T04:48:52.781Z,16.24
2022-11-10T04:51:39.215Z,16.28
2022-11-10T04:54:24.384Z,16.30
2022-11-10T04:57:09.708Z,16.39
2022-11-10T04:59:55.047Z,16.36
2022-11-10T05:02:40.347Z,16.12
2022-11-10T05:05:25.745Z,16.25
2022-11-10T05:08:11.157Z,16.13
2022-11-10T05:10:59.690Z,16.08
2022-11-10T05:13:46.055Z,16.20
2022-11-10T05:16:31.128Z,16.14
2022-11-10T05:19:16.560Z,16.03
2022-11-10T05:22:01.818Z,16.09
2022-11-10T05:24:47.140Z,16.19
2022-11-10T05:27:32.434Z,16.20
2022-11-10T05:30:17.989Z,16.19
2022-11-10T05:33:04.188Z,16.27
2022-11-10T05:35:50.274Z,16.28
2022-11-10T05:38:40.267Z,16.22
2022-11-10T05:41:28.081Z,16.25
2022-11-10T05:44:13.785Z,16.34
2022-11-10T05:46:58.993Z,16.35
2022-11-10T05:49:44.688Z,16.16
2022-11-10T05:52:29.849Z,16.15
2022-11-10T05:55:16.567Z,16.00
2022-11-10T05:58:01.652Z,16.25
2022-11-10T06:00:46.970Z,16.25
2022-11-10T06:03:32.418Z,16.30
2022-11-10T06:06:18.652Z,16.35
2022-11-10T06:09:03.924Z,16.29
2022-11-10T06:11:49.309Z,16.18
2022-11-10T06:14:34.560Z,16.22
2022-11-10T06:17:19.837Z,16.15
2022-11-10T06:20:05.666Z,16.11
2022-11-10T06:23:11.866Z,16.07
2022-11-10T06:25:57.247Z,15.87
2022-11-10T06:28:42.583Z,16.07
2022-11-10T06:31:28.182Z,16.32
2022-11-10T06:34:13.226Z,16.29
2022-11-10T06:36:58.454Z,16.37
2022-11-10T06:39:43.711Z,16.32
2022-11-10T06:42:28.860Z,16.31
2022-11-10T06:45:13.942Z,16.32
2022-11-10T06:48:09.367Z,16.38
2022-11-10T06:50:54.593Z,16.52
2022-11-10T06:53:39.871Z,16.48
2022-11-10T06:56:25.437Z,16.57
2022-11-10T06:59:10.688Z,16.58
2022-11-10T07:01:56.103Z,16.48
2022-11-10T07:04:42.750Z,16.55
2022-11-10T07:07:27.722Z,16.56
2022-11-10T07:10:13.055Z,16.48
2022-11-10T07:12:59.994Z,16.40
2022-11-10T07:15:45.447Z,16.54
2022-11-10T07:18:30.984Z,16.54
2022-11-10T07:21:16.283Z,16.59
2022-11-10T07:24:01.747Z,16.52
2022-11-10T07:26:47.134Z,16.46
2022-11-10T07:29:32.156Z,16.39
2022-11-10T07:32:17.470Z,16.57
2022-11-10T07:35:02.647Z,16.76
2022-11-10T07:37:47.967Z,16.79
2022-11-10T07:40:33.489Z,16.90
2022-11-10T07:43:20.496Z,17.03
2022-11-10T07:46:05.836Z,17.07
2022-11-10T07:48:50.939Z,17.23
2022-11-10T07:51:36.264Z,17.32
2022-11-10T07:54:21.589Z,17.33
2022-11-10T07:57:07.103Z,17.26
2022-11-10T07:59:55.462Z,17.22
2022-11-10T08:02:43.292Z,17.18
2022-11-10T08:05:28.449Z,17.31
2022-11-10T08:08:14.182Z,17.24
2022-11-10T08:10:59.152Z,17.37
2022-11-10T08:13:44.563Z,17.53
2022-11-10T08:16:29.885Z,17.44
2022-11-10T08:19:15.144Z,17.53
2022-11-10T08:22:00.688Z,17.42
2022-11-10T08:24:45.954Z,17.45
2022-11-10T08:27:31.376Z,17.47
2022-11-10T08:30:16.716Z,17.64
2022-11-10T08:33:03.194Z,17.38
2022-11-10T08:35:51.248Z,17.42
2022-11-10T08:38:36.505Z,17.77
2022-11-10T08:41:21.764Z,17.06
2022-11-10T08:44:10.721Z,17.39
2022-11-10T08:46:56.265Z,17.28
2022-11-10T08:49:41.697Z,16.85
2022-11-10T08:52:27.125Z,17.54
2022-11-10T08:55:12.392Z,17.27
2022-11-10T08:58:00.633Z,17.27
2022-11-10T09:00:46.379Z,17.91
2022-11-10T09:03:31.660Z,17.91
2022-11-10T09:06:17.060Z,17.65
2022-11-10T09:09:02.601Z,17.04
2022-11-10T09:11:47.919Z,18.11
2022-11-10T09:14:33.310Z,17.73
2022-11-10T09:17:18.760Z,17.50
2022-11-10T09:20:05.843Z,18.13
2022-11-10T09:22:50.881Z,18.65
2022-11-10T09:25:36.580Z,18.77
2022-11-10T09:28:22.791Z,18.70
2022-11-10T09:31:07.962Z,18.89
2022-11-10T09:33:53.279Z,18.75
2022-11-10T09:36:40.259Z,18.38
2022-11-10T09:39:25.406Z,19.12
2022-11-10T09:42:33.091Z,19.28
2022-11-10T09:45:27.072Z,19.50
2022-11-10T09:48:24.933Z,19.59
2022-11-10T09:51:44.036Z,19.72
2022-11-10T09:54:42.250Z,19.83
2022-11-10T09:57:27.763Z,20.01
2022-11-10T10:00:15.610Z,19.88
2022-11-10T10:03:06.124Z,19.51
2022-11-10T10:06:12.244Z,19.58
2022-11-10T10:09:11.821Z,19.81
2022-11-10T10:12:10.699Z,19.93
2022-11-10T10:15:00.845Z,19.86
2022-11-10T10:18:25.381Z,18.67
2022-11-10T10:21:29.461Z,19.42
2022-11-10T10:24:21.886Z,19.36
2022-11-10T10:27:15.403Z,19.51
2022-11-10T10:30:00.824Z,19.62
2022-11-10T10:32:46.309Z,19.66
2022-11-10T10:35:37.672Z,19.71
2022-11-10T10:38:36.281Z,19.51
2022-11-10T10:41:25.088Z,19.97
2022-11-10T10:44:14.083Z,20.58
2022-11-10T10:47:01.512Z,20.62
2022-11-10T10:49:46.865Z,20.27
2022-11-10T10:52:32.341Z,20.39
2022-11-10T10:55:17.716Z,22.02
2022-11-10T10:58:23.757Z,24.46
2022-11-10T11:01:15.477Z,24.20
2022-11-10T11:04:24.906Z,25.27
2022-11-10T11:07:30.007Z,27.68
2022-11-10T11:10:31.064Z,29.66
2022-11-10T11:13:23.346Z,30.26
2022-11-10T11:16:12.167Z,29.57
2022-11-10T11:18:57.509Z,28.28
2022-11-10T11:22:21.660Z,28.39
2022-11-10T11:25:33.756Z,27.53
2022-11-10T11:29:02.278Z,26.79
2022-11-10T11:31:59.529Z,25.71
2022-11-10T11:35:05.918Z,22.87
2022-11-10T11:38:33.576Z,21.28
2022-11-10T11:41:34.133Z,21.76
2022-11-10T11:44:49.609Z,21.26
2022-11-10T11:47:49.874Z,21.04
2022-11-10T11:50:50.367Z,21.04
2022-11-10T11:54:05.042Z,21.12
2022-11-10T11:56:51.401Z,21.46
2022-11-10T11:59:50.553Z,21.53
2022-11-10T12:02:47.565Z,21.00
2022-11-10T12:05:55.353Z,21.04
2022-11-10T12:08:54.362Z,21.62
2022-11-10T12:12:26.264Z,22.39
2022-11-10T12:15:28.031Z,22.70
2022-11-10T12:18:34.995Z,22.81
2022-11-10T12:21:38.038Z,23.64
2022-11-10T12:24:28.936Z,24.52
2022-11-10T12:27:20.687Z,26.21
2022-11-10T12:30:14.239Z,27.49
2022-11-10T12:33:07.328Z,27.52
2022-11-10T12:35:55.055Z,26.76
2022-11-10T12:39:06.988Z,26.01
2022-11-10T12:41:59.235Z,25.63
2022-11-10T12:45:07.383Z,25.17
2022-11-10T12:47:54.332Z,24.61
2022-11-10T12:50:49.498Z,24.88
2022-11-10T12:53:38.833Z,26.03
2022-11-10T12:56:54.752Z,27.39
2022-11-10T12:59:43.163Z,26.81
2022-11-10T13:02:44.294Z,25.52
2022-11-10T13:05:41.872Z,24.99
2022-11-10T13:08:42.440Z,24.68
2022-11-10T13:11:37.230Z,24.00
2022-11-10T13:14:29.451Z,22.89
2022-11-10T13:17:26.852Z,21.71
2022-11-10T13:20:40.061Z,21.52
2022-11-10T13:23:52.352Z,21.65
2022-11-10T13:26:40.239Z,21.78
2022-11-10T13:29:34.693Z,21.89
2022-11-10T13:32:26.176Z,21.83
2022-11-10T13:35:29.449Z,21.90
2022-11-10T13:38:32.885Z,21.84
2022-11-10T13:41:17.814Z,21.52
2022-11-10T13:44:03.048Z,21.61
2022-11-10T13:47:08.450Z,21.65
2022-11-10T13:50:17.171Z,21.59
2022-11-10T13:53:40.663Z,21.33
2022-11-10T13:56:39.279Z,21.40
2022-11-10T13:59:30.518Z,21.37
2022-11-10T14:02:39.304Z,21.52
2022-11-10T14:05:30.335Z,21.60
2022-11-10T14:08:22.695Z,21.57
2022-11-10T14:11:20.958Z,21.19
2022-11-10T14:14:27.067Z,20.10
2022-11-10T14:17:39.536Z,20.50
2022-11-10T14:20:32.685Z,20.89
2022-11-10T14:23:43.493Z,21.21
2022-11-10T14:26:34.663Z,21.07
2022-11-10T14:29:40.734Z,21.24
2022-11-10T14:32:31.637Z,21.36
2022-11-10T14:35:23.166Z,21.35
2022-11-10T14:38:20.317Z,21.42
2022-11-10T14:41:07.495Z,21.55
2022-11-10T14:44:05.347Z,22.14
2022-11-10T14:46:51.860Z,22.44
2022-11-10T14:50:02.455Z,22.45
2022-11-10T14:52:51.664Z,22.35
2022-11-10T14:55:37.100Z,22.05
2022-11-10T14:58:34.040Z,21.77
2022-11-10T15:01:46.433Z,21.52
2022-11-10T15:04:33.294Z,21.20
2022-11-10T15:07:19.297Z,20.81
2022-11-10T15:10:16.237Z,20.63
2022-11-10T15:13:05.305Z,20.45
2022-11-10T15:15:50.428Z,20.31
2022-11-10T15:18:35.675Z,20.22
2022-11-10T15:21:26.480Z,20.03
2022-11-10T15:24:12.232Z,19.81
2022-11-10T15:26:57.495Z,19.66
2022-11-10T15:29:42.960Z,19.68
2022-11-10T15:32:50.556Z,19.68
2022-11-10T15:35:35.894Z,19.57
2022-11-10T15:38:31.899Z,19.46
2022-11-10T15:41:27.097Z,19.41
2022-11-10T15:44:15.765Z,19.20
2022-11-10T15:47:00.762Z,19.00
2022-11-10T15:49:46.848Z,18.73
2022-11-10T15:52:33.223Z,18.34
2022-11-10T15:55:23.476Z,18.22
2022-11-10T15:58:13.063Z,18.14
2022-11-10T16:00:58.088Z,18.13
2022-11-10T16:03:43.907Z,17.98
2022-11-10T16:06:30.586Z,18.09
2022-11-10T16:09:15.876Z,18.03
2022-11-10T16:12:01.291Z,17.87
2022-11-10T16:14:49.707Z,17.85
2022-11-10T16:17:34.817Z,17.74
2022-11-10T16:20:20.106Z,17.65
2022-11-10T16:23:05.427Z,17.52
2022-11-10T16:25:54.691Z,17.38
2022-11-10T16:28:41.938Z,17.06
2022-11-10T16:31:27.685Z,16.85
2022-11-10T16:34:14.735Z,16.73
2022-11-10T16:37:00.070Z,16.76
2022-11-10T16:39:45.433Z,16.83
2022-11-10T16:42:30.860Z,16.79
2022-11-10T16:45:24.693Z,16.71
2022-11-10T16:48:13.160Z,16.57
2022-11-10T16:51:00.272Z,16.56
2022-11-10T16:53:45.615Z,16.55
2022-11-10T16:56:30.815Z,16.56
2022-11-10T16:59:16.977Z,16.53
2022-11-10T17:02:02.090Z,16.46
2022-11-10T17:04:47.372Z,16.45
2022-11-10T17:07:33.748Z,16.48
2022-11-10T17:10:21.156Z,16.42
2022-11-10T17:13:08.956Z,16.34
2022-11-10T17:16:01.011Z,16.34
2022-11-10T17:18:46.585Z,16.30
2022-11-10T17:21:34.450Z,16.27
2022-11-10T17:24:20.112Z,16.25
2022-11-10T17:27:05.655Z,16.25
2022-11-10T17:29:50.878Z,16.20
2022-11-10T17:33:02.893Z,16.18
2022-11-10T17:35:53.084Z,16.09
2022-11-10T17:38:38.567Z,16.10
2022-11-10T17:41:24.007Z,15.97
2022-11-10T17:44:16.371Z,16.03
2022-11-10T17:47:01.557Z,15.95
2022-11-10T17:49:46.842Z,15.80
2022-11-10T17:52:32.120Z,15.71
2022-11-10T17:55:19.836Z,15.58
2022-11-10T17:58:05.078Z,15.62
2022-11-10T18:00:51.576Z,15.47
2022-11-10T18:03:36.541Z,15.57
2022-11-10T18:06:21.980Z,15.50
2022-11-10T18:09:07.425Z,15.43
2022-11-10T18:11:52.558Z,15.46
2022-11-10T18:14:37.825Z,15.41
2022-11-10T18:17:23.913Z,15.36
2022-11-10T18:20:10.964Z,15.30
2022-11-10T18:22:55.942Z,15.19
2022-11-10T18:25:42.545Z,15.16
2022-11-10T18:28:27.685Z,15.05
2022-11-10T18:31:13.197Z,15.04
2022-11-10T18:33:58.662Z,15.07
2022-11-10T18:36:43.607Z,14.96
2022-11-10T18:39:28.920Z,14.94
2022-11-10T18:42:14.555Z,14.93
2022-11-10T18:44:59.715Z,14.83
2022-11-10T18:47:45.132Z,14.86
2022-11-10T18:50:30.822Z,14.84
2022-11-10T18:53:16.234Z,14.80
2022-11-10T18:56:01.426Z,14.78
2022-11-10T18:58:56.182Z,14.68
2022-11-10T19:01:41.991Z,14.61
2022-11-10T19:04:26.971Z,14.69
2022-11-10T19:07:12.210Z,14.60
2022-11-10T19:09:57.598Z,14.63
2022-11-10T19:12:42.936Z,14.59
2022-11-10T19:15:28.151Z,14.65
2022-11-10T19:18:13.753Z,14.58
2022-11-10T19:21:04.537Z,14.59
2022-11-10T19:23:54.696Z,14.46
2022-11-10T19:26:39.741Z,14.49
2022-11-10T19:29:25.024Z,14.50
2022-11-10T19:32:10.212Z,14.26
2022-11-10T19:34:55.766Z,14.08
2022-11-10T19:37:41.037Z,14.04
2022-11-10T19:40:26.312Z,14.03
2022-11-10T19:43:11.737Z,13.99
2022-11-10T19:45:57.089Z,13.99
2022-11-10T19:48:43.733Z,14.01
2022-11-10T19:51:29.268Z,13.99
2022-11-10T19:54:14.647Z,14.01
2022-11-10T19:57:01.070Z,13.89
2022-11-10T19:59:46.301Z,13.60
2022-11-10T20:02:31.759Z,13.16
2022-11-10T20:05:19.900Z,13.04
2022-11-10T20:08:11.643Z,13.03
2022-11-10T20:11:12.192Z,12.98
2022-11-10T20:14:00.495Z,12.85
2022-11-10T20:16:45.439Z,12.86
2022-11-10T20:19:30.982Z,13.05
2022-11-10T20:22:16.207Z,13.10
2022-11-10T20:25:01.656Z,13.53
2022-11-10T20:27:47.014Z,13.69
2022-11-10T20:30:34.456Z,13.68
2022-11-10T20:33:20.335Z,13.68
2022-11-10T20:36:18.979Z,13.70
2022-11-10T20:39:05.567Z,13.62
2022-11-10T20:41:52.485Z,13.54
2022-11-10T20:44:37.843Z,13.55
2022-11-10T20:47:23.632Z,13.56
2022-11-10T20:50:14.774Z,13.45
2022-11-10T20:53:01.915Z,13.42
2022-11-10T20:55:54.409Z,13.50
2022-11-10T20:58:40.572Z,13.41
2022-11-10T21:01:26.360Z,13.47
2022-11-10T21:04:11.419Z,13.42
2022-11-10T21:06:56.816Z,13.30
2022-11-10T21:09:42.244Z,13.33
2022-11-10T21:12:46.343Z,13.24
2022-11-10T21:15:31.932Z,13.23
2022-11-10T21:18:17.329Z,13.22
2022-11-10T21:21:04.643Z,13.20
2022-11-10T21:23:57.351Z,13.17
2022-11-10T21:26:42.676Z,13.22
2022-11-10T21:29:28.008Z,13.22
2022-11-10T21:32:13.239Z,13.09
2022-11-10T21:34:58.703Z,13.05
2022-11-10T21:37:43.880Z,12.98
2022-11-10T21:40:29.200Z,13.02
2022-11-10T21:43:14.515Z,13.07
2022-11-10T21:46:03.896Z,12.97
2022-11-10T21:48:52.775Z,12.91
2022-11-10T21:51:37.939Z,12.96
2022-11-10T21:54:23.369Z,12.91
2022-11-10T21:57:08.738Z,12.93
2022-11-10T21:59:54.039Z,12.92
2022-11-10T22:02:39.407Z,12.91
2022-11-10T22:05:24.800Z,12.83
2022-11-10T22:08:10.448Z,12.83
2022-11-10T22:11:14.027Z,12.87
2022-11-10T22:14:17.940Z,12.81
2022-11-10T22:17:32.385Z,12.80
2022-11-10T22:20:17.735Z,12.72
2022-11-10T22:23:02.996Z,12.76
2022-11-10T22:25:48.193Z,12.77
2022-11-10T22:28:33.352Z,12.76
2022-11-10T22:31:18.719Z,12.69
2022-11-10T22:34:04.108Z,12.67
2022-11-10T22:36:50.025Z,12.70
2022-11-10T22:39:53.394Z,12.71
2022-11-10T22:42:57.130Z,12.70
2022-11-10T22:45:44.715Z,12.61
2022-11-10T22:48:33.388Z,12.66
2022-11-10T22:51:18.509Z,12.61
2022-11-10T22:54:04.634Z,12.66
2022-11-10T22:56:50.843Z,12.59
2022-11-10T22:59:36.115Z,12.50
2022-11-10T23:02:21.436Z,12.43
2022-11-10T23:05:07.068Z,12.41
2022-11-10T23:07:52.267Z,12.45
2022-11-10T23:10:37.620Z,12.47
2022-11-10T23:13:23.110Z,12.45
2022-11-10T23:16:14.084Z,12.38
2022-11-10T23:18:59.152Z,12.29
2022-11-10T23:21:44.472Z,12.34
2022-11-10T23:24:30.264Z,12.35
2022-11-10T23:27:15.567Z,12.23
2022-11-10T23:30:00.914Z,12.25
2022-11-10T23:32:46.228Z,12.16
2022-11-10T23:35:32.892Z,12.33
2022-11-10T23:38:18.020Z,12.32
2022-11-10T23:41:05.697Z,12.30
2022-11-10T23:43:50.888Z,12.24
2022-11-10T23:46:36.153Z,11.81
2022-11-10T23:49:21.577Z,11.71
2022-11-10T23:52:06.960Z,11.77
2022-11-10T23:54:52.341Z,11.68
2022-11-10T23:57:37.643Z,11.71
